sensor_id;sensor_type;location;lat;lon;timestamp;pressure;altitude;pressure_sealevel;temperature;humidity
56330;BME280;42236;48.058;10.632;2023-11-21T00:01:30;94171.59;;;6.36;100.00
56330;BME280;42236;48.058;10.632;2023-11-21T00:04:15;94161.69;;;6.36;100.00
56330;BME280;42236;48.058;10.632;2023-11-21T00:07:01;94162.34;;;6.33;100.00
56330;BME280;42236;48.058;10.632;2023-11-21T00:09:47;94166.09;;;6.32;100.00
56330;BME280;42236;48.058;10.632;2023-11-21T00:12:34;94166.09;;;6.32;100.00
56330;BME280;42236;48.058;10.632;2023-11-21T00:15:19;94159.66;;;6.33;100.00
56330;BME280;42236;48.058;10.632;2023-11-21T00:18:06;94156.50;;;6.31;100.00
56330;BME280;42236;48.058;10.632;2023-11-21T00:20:52;94160.75;;;6.32;100.00
56330;BME280;42236;48.058;10.632;2023-11-21T00:23:37;94157.59;;;6.30;100.00
56330;BME280;42236;48.058;10.632;2023-11-21T00:26:23;94159.19;;;6.31;100.00
56330;BME280;42236;48.058;10.632;2023-11-21T00:29:09;94161.88;;;6.31;100.00
56330;BME280;42236;48.058;10.632;2023-11-21T00:31:56;94153.16;;;6.34;100.00
56330;BME280;42236;48.058;10.632;2023-11-21T00:34:42;94159.31;;;6.35;100.00
56330;BME280;42236;48.058;10.632;2023-11-21T00:37:27;94157.75;;;6.34;100.00
56330;BME280;42236;48.058;10.632;2023-11-21T00:40:13;94154.59;;;6.32;100.00
56330;BME280;42236;48.058;10.632;2023-11-21T00:43:00;94153.16;;;6.34;100.00
56330;BME280;42236;48.058;10.632;2023-11-21T00:45:46;94155.53;;;6.36;100.00
56330;BME280;42236;48.058;10.632;2023-11-21T00:48:34;94146.84;;;6.39;100.00
56330;BME280;42236;48.058;10.632;2023-11-21T00:51:20;94160.34;;;6.43;100.00
56330;BME280;42236;48.058;10.632;2023-11-21T00:54:06;94159.25;;;6.44;100.00
56330;BME280;42236;48.058;10.632;2023-11-21T00:56:52;94158.16;;;6.45;100.00
56330;BME280;42236;48.058;10.632;2023-11-21T00:59:38;94172.19;;;6.41;100.00
56330;BME280;42236;48.058;10.632;2023-11-21T01:02:23;94172.06;;;6.38;100.00
56330;BME280;42236;48.058;10.632;2023-11-21T01:05:10;94167.69;;;6.33;100.00
56330;BME280;42236;48.058;10.632;2023-11-21T01:07:56;94176.97;;;6.36;100.00
56330;BME280;42236;48.058;10.632;2023-11-21T01:10:42;94172.50;;;6.40;100.00
56330;BME280;42236;48.058;10.632;2023-11-21T01:13:27;94172.19;;;6.41;100.00
56330;BME280;42236;48.058;10.632;2023-11-21T01:16:15;94174.41;;;6.39;100.00
56330;BME280;42236;48.058;10.632;2023-11-21T01:19:00;94169.25;;;6.34;100.00
56330;BME280;42236;48.058;10.632;2023-11-21T01:21:46;94166.75;;;6.29;100.00
56330;BME280;42236;48.058;10.632;2023-11-21T01:24:32;94172.78;;;6.26;100.00
56330;BME280;42236;48.058;10.632;2023-11-21T01:27:18;94168.84;;;6.24;100.00
56330;BME280;42236;48.058;10.632;2023-11-21T01:30:04;94166.47;;;6.22;100.00
56330;BME280;42236;48.058;10.632;2023-11-21T01:32:50;94163.81;;;6.22;100.00
56330;BME280;42236;48.058;10.632;2023-11-21T01:35:36;94167.44;;;6.17;100.00
56330;BME280;42236;48.058;10.632;2023-11-21T01:38:30;94158.63;;;6.17;100.00
56330;BME280;42236;48.058;10.632;2023-11-21T01:41:26;94151.69;;;6.16;100.00
56330;BME280;42236;48.058;10.632;2023-11-21T01:44:12;94163.22;;;6.16;100.00
56330;BME280;42236;48.058;10.632;2023-11-21T01:46:58;94163.06;;;6.13;100.00
56330;BME280;42236;48.058;10.632;2023-11-21T01:49:45;94160.72;;;6.11;100.00
56330;BME280;42236;48.058;10.632;2023-11-21T01:52:34;94162.13;;;6.09;100.00
56330;BME280;42236;48.058;10.632;2023-11-21T01:55:21;94165.94;;;6.08;100.00
56330;BME280;42236;48.058;10.632;2023-11-21T01:58:06;94165.47;;;6.06;100.00
56330;BME280;42236;48.058;10.632;2023-11-21T02:00:53;94159.03;;;6.07;100.00
56330;BME280;42236;48.058;10.632;2023-11-21T02:03:40;94156.00;;;6.08;100.00
56330;BME280;42236;48.058;10.632;2023-11-21T02:06:26;94142.59;;;6.08;100.00
56330;BME280;42236;48.058;10.632;2023-11-21T02:09:11;94147.66;;;6.10;100.00
56330;BME280;42236;48.058;10.632;2023-11-21T02:12:00;94144.50;;;6.08;100.00
56330;BME280;42236;48.058;10.632;2023-11-21T02:14:46;94140.28;;;6.07;100.00
56330;BME280;42236;48.058;10.632;2023-11-21T02:17:34;94139.63;;;6.10;100.00
56330;BME280;42236;48.058;10.632;2023-11-21T02:20:23;94138.03;;;6.09;100.00
56330;BME280;42236;48.058;10.632;2023-11-21T02:23:10;94142.94;;;6.07;100.00
56330;BME280;42236;48.058;10.632;2023-11-21T02:25:56;94142.28;;;6.10;100.00
56330;BME280;42236;48.058;10.632;2023-11-21T02:28:41;94146.22;;;6.12;100.00
56330;BME280;42236;48.058;10.632;2023-11-21T02:31:28;94145.44;;;6.12;100.00
56330;BME280;42236;48.058;10.632;2023-11-21T02:34:17;94143.84;;;6.11;100.00
56330;BME280;42236;48.058;10.632;2023-11-21T02:37:03;94144.97;;;6.10;100.00
56330;BME280;42236;48.058;10.632;2023-11-21T02:39:49;94140.72;;;6.09;100.00
56330;BME280;42236;48.058;10.632;2023-11-21T02:42:35;94137.44;;;6.03;100.00
56330;BME280;42236;48.058;10.632;2023-11-21T02:45:21;94141.88;;;5.99;100.00
56330;BME280;42236;48.058;10.632;2023-11-21T02:48:06;94136.84;;;5.97;100.00
56330;BME280;42236;48.058;10.632;2023-11-21T02:50:52;94146.78;;;5.97;100.00
56330;BME280;42236;48.058;10.632;2023-11-21T02:53:38;94142.06;;;5.94;100.00
56330;BME280;42236;48.058;10.632;2023-11-21T02:56:25;94141.56;;;5.92;100.00
56330;BME280;42236;48.058;10.632;2023-11-21T02:59:11;94152.25;;;5.92;100.00
56330;BME280;42236;48.058;10.632;2023-11-21T03:01:57;94148.34;;;5.89;100.00
56330;BME280;42236;48.058;10.632;2023-11-21T03:04:43;94149.94;;;5.90;100.00
56330;BME280;42236;48.058;10.632;2023-11-21T03:07:29;94147.25;;;5.90;100.00
56330;BME280;42236;48.058;10.632;2023-11-21T03:10:15;94148.34;;;5.89;100.00
56330;BME280;42236;48.058;10.632;2023-11-21T03:13:00;94141.91;;;5.90;100.00
56330;BME280;42236;48.058;10.632;2023-11-21T03:15:46;94134.66;;;5.91;100.00
56330;BME280;42236;48.058;10.632;2023-11-21T03:18:33;94143.16;;;5.93;100.00
56330;BME280;42236;48.058;10.632;2023-11-21T03:21:18;94135.88;;;5.93;100.00
56330;BME280;42236;48.058;10.632;2023-11-21T03:24:04;94117.47;;;5.92;100.00
56330;BME280;42236;48.058;10.632;2023-11-21T03:26:51;94137.00;;;5.92;100.00
56330;BME280;42236;48.058;10.632;2023-11-21T03:29:37;94133.53;;;5.92;100.00
56330;BME280;42236;48.058;10.632;2023-11-21T03:32:23;94139.41;;;5.85;100.00
56330;BME280;42236;48.058;10.632;2023-11-21T03:35:09;94143.34;;;5.79;100.00
56330;BME280;42236;48.058;10.632;2023-11-21T03:37:55;94149.72;;;5.66;100.00
56330;BME280;42236;48.058;10.632;2023-11-21T03:40:42;94144.09;;;5.59;100.00
56330;BME280;42236;48.058;10.632;2023-11-21T03:43:28;94146.75;;;5.59;100.00
56330;BME280;42236;48.058;10.632;2023-11-21T03:46:14;94151.00;;;5.60;100.00
56330;BME280;42236;48.058;10.632;2023-11-21T03:49:00;94150.53;;;5.57;100.00
56330;BME280;42236;48.058;10.632;2023-11-21T03:51:45;94154.78;;;5.59;100.00
56330;BME280;42236;48.058;10.632;2023-11-21T03:54:31;94159.31;;;5.58;100.00
56330;BME280;42236;48.058;10.632;2023-11-21T03:57:16;94156.50;;;5.63;100.00
56330;BME280;42236;48.058;10.632;2023-11-21T04:00:03;94161.53;;;5.65;100.00
56330;BME280;42236;48.058;10.632;2023-11-21T04:02:53;94156.31;;;5.68;100.00
56330;BME280;42236;48.058;10.632;2023-11-21T04:05:39;94159.78;;;5.69;100.00
56330;BME280;42236;48.058;10.632;2023-11-21T04:08:25;94165.13;;;5.69;100.00
56330;BME280;42236;48.058;10.632;2023-11-21T04:11:11;94159.31;;;5.67;100.00
56330;BME280;42236;48.058;10.632;2023-11-21T04:13:57;94157.09;;;5.69;100.00
56330;BME280;42236;48.058;10.632;2023-11-21T04:16:43;94162.44;;;5.69;100.00
56330;BME280;42236;48.058;10.632;2023-11-21T04:19:29;94166.25;;;5.68;100.00
56330;BME280;42236;48.058;10.632;2023-11-21T04:22:14;94164.19;;;5.65;100.00
56330;BME280;42236;48.058;10.632;2023-11-21T04:25:00;94155.69;;;5.63;100.00
56330;BME280;42236;48.058;10.632;2023-11-21T04:27:46;94164.84;;;5.62;100.00
56330;BME280;42236;48.058;10.632;2023-11-21T04:30:32;94159.50;;;5.62;100.00
56330;BME280;42236;48.058;10.632;2023-11-21T04:33:18;94161.53;;;5.65;100.00
56330;BME280;42236;48.058;10.632;2023-11-21T04:36:04;94161.03;;;5.63;100.00
56330;BME280;42236;48.058;10.632;2023-11-21T04:38:50;94163.28;;;5.61;100.00
56330;BME280;42236;48.058;10.632;2023-11-21T04:41:35;94170.19;;;5.62;100.00
56330;BME280;42236;48.058;10.632;2023-11-21T04:44:22;94171.31;;;5.61;100.00
56330;BME280;42236;48.058;10.632;2023-11-21T04:47:07;94166.28;;;5.59;100.00
56330;BME280;42236;48.058;10.632;2023-11-21T04:49:53;94167.69;;;5.56;100.00
56330;BME280;42236;48.058;10.632;2023-11-21T04:52:39;94165.31;;;5.55;100.00
56330;BME280;42236;48.058;10.632;2023-11-21T04:55:24;94156.22;;;5.56;100.00
56330;BME280;42236;48.058;10.632;2023-11-21T04:58:13;94154.31;;;5.56;100.00
56330;BME280;42236;48.058;10.632;2023-11-21T05:00:59;94165.31;;;5.55;100.00
56330;BME280;42236;48.058;10.632;2023-11-21T05:03:44;94165.66;;;5.53;100.00
56330;BME280;42236;48.058;10.632;2023-11-21T05:06:30;94162.34;;;5.48;100.00
56330;BME280;42236;48.058;10.632;2023-11-21T05:09:16;94164.72;;;5.49;100.00
56330;BME280;42236;48.058;10.632;2023-11-21T05:12:01;94162.69;;;5.46;100.00
56330;BME280;42236;48.058;10.632;2023-11-21T05:14:47;94176.69;;;5.43;100.00
56330;BME280;42236;48.058;10.632;2023-11-21T05:17:34;94177.19;;;5.37;100.00
56330;BME280;42236;48.058;10.632;2023-11-21T05:20:22;94173.72;;;5.36;100.00
56330;BME280;42236;48.058;10.632;2023-11-21T05:23:09;94178.44;;;5.39;100.00
56330;BME280;42236;48.058;10.632;2023-11-21T05:25:54;94175.13;;;5.42;100.00
56330;BME280;42236;48.058;10.632;2023-11-21T05:28:41;94176.56;;;5.40;100.00
56330;BME280;42236;48.058;10.632;2023-11-21T05:31:27;94168.69;;;5.34;100.00
56330;BME280;42236;48.058;10.632;2023-11-21T05:34:13;94179.06;;;5.36;100.00
56330;BME280;42236;48.058;10.632;2023-11-21T05:36:58;94169.94;;;5.37;100.00
56330;BME280;42236;48.058;10.632;2023-11-21T05:39:44;94183.47;;;5.41;100.00
56330;BME280;42236;48.058;10.632;2023-11-21T05:42:29;94178.44;;;5.39;100.00
56330;BME280;42236;48.058;10.632;2023-11-21T05:45:16;94168.06;;;5.38;100.00
56330;BME280;42236;48.058;10.632;2023-11-21T05:48:02;94175.31;;;5.37;100.00
56330;BME280;42236;48.058;10.632;2023-11-21T05:50:48;94173.09;;;5.39;100.00
56330;BME280;42236;48.058;10.632;2023-11-21T05:53:35;94178.75;;;5.38;100.00
56330;BME280;42236;48.058;10.632;2023-11-21T05:56:21;94178.44;;;5.39;100.00
56330;BME280;42236;48.058;10.632;2023-11-21T05:59:06;94182.69;;;5.40;100.00
56330;BME280;42236;48.058;10.632;2023-11-21T06:01:52;94181.56;;;5.41;100.00
56330;BME280;42236;48.058;10.632;2023-11-21T06:04:39;94179.22;;;5.40;100.00
56330;BME280;42236;48.058;10.632;2023-11-21T06:07:24;94185.34;;;5.40;100.00
56330;BME280;42236;48.058;10.632;2023-11-21T06:10:11;94193.84;;;5.42;100.00
56330;BME280;42236;48.058;10.632;2023-11-21T06:12:59;94184.25;;;5.41;100.00
56330;BME280;42236;48.058;10.632;2023-11-21T06:15:45;94188.50;;;5.42;100.00
56330;BME280;42236;48.058;10.632;2023-11-21T06:18:30;94197.00;;;5.44;100.00
56330;BME280;42236;48.058;10.632;2023-11-21T06:21:16;94188.19;;;5.44;100.00
56330;BME280;42236;48.058;10.632;2023-11-21T06:24:03;94199.19;;;5.42;100.00
56330;BME280;42236;48.058;10.632;2023-11-21T06:26:49;94194.16;;;5.41;100.00
56330;BME280;42236;48.058;10.632;2023-11-21T06:29:34;94199.69;;;5.44;100.00
56330;BME280;42236;48.058;10.632;2023-11-21T06:32:20;94203.44;;;5.43;100.00
56330;BME280;42236;48.058;10.632;2023-11-21T06:35:08;94199.97;;;5.43;100.00
56330;BME280;42236;48.058;10.632;2023-11-21T06:37:55;94198.72;;;5.40;100.00
56330;BME280;42236;48.058;10.632;2023-11-21T06:40:41;94203.78;;;5.42;100.00
56330;BME280;42236;48.058;10.632;2023-11-21T06:43:26;94209.13;;;5.42;100.00
56330;BME280;42236;48.058;10.632;2023-11-21T06:46:13;94213.06;;;5.44;100.00
56330;BME280;42236;48.058;10.632;2023-11-21T06:49:01;94213.34;;;5.43;100.00
56330;BME280;42236;48.058;10.632;2023-11-21T06:51:47;94220.59;;;5.42;100.00
56330;BME280;42236;48.058;10.632;2023-11-21T06:54:33;94224.53;;;5.45;100.00
56330;BME280;42236;48.058;10.632;2023-11-21T06:57:18;94222.31;;;5.47;100.00
56330;BME280;42236;48.058;10.632;2023-11-21T07:00:04;94219.78;;;5.50;100.00
56330;BME280;42236;48.058;10.632;2023-11-21T07:02:51;94223.28;;;5.51;100.00
56330;BME280;42236;48.058;10.632;2023-11-21T07:05:37;94213.97;;;5.48;100.00
56330;BME280;42236;48.058;10.632;2023-11-21T07:08:23;94222.00;;;5.48;100.00
56330;BME280;42236;48.058;10.632;2023-11-21T07:11:08;94233.03;;;5.47;100.00
56330;BME280;42236;48.058;10.632;2023-11-21T07:13:54;94223.75;;;5.44;100.00
56330;BME280;42236;48.058;10.632;2023-11-21T07:16:40;94223.91;;;5.39;100.00
56330;BME280;42236;48.058;10.632;2023-11-21T07:19:26;94233.50;;;5.40;100.00
56330;BME280;42236;48.058;10.632;2023-11-21T07:22:11;94229.72;;;5.41;100.00
56330;BME280;42236;48.058;10.632;2023-11-21T07:24:59;94226.72;;;5.43;100.00
56330;BME280;42236;48.058;10.632;2023-11-21T07:27:45;94238.69;;;5.45;100.00
56330;BME280;42236;48.058;10.632;2023-11-21T07:30:30;94240.72;;;5.48;100.00
56330;BME280;42236;48.058;10.632;2023-11-21T07:33:16;94243.25;;;5.53;100.00
56330;BME280;42236;48.058;10.632;2023-11-21T07:36:03;94243.69;;;5.55;100.00
56330;BME280;42236;48.058;10.632;2023-11-21T07:38:49;94244.63;;;5.60;100.00
56330;BME280;42236;48.058;10.632;2023-11-21T07:41:35;94244.47;;;5.65;100.00
56330;BME280;42236;48.058;10.632;2023-11-21T07:44:20;94250.75;;;5.69;100.00
56330;BME280;42236;48.058;10.632;2023-11-21T07:47:07;94250.59;;;5.74;100.00
56330;BME280;42236;48.058;10.632;2023-11-21T07:49:53;94246.97;;;5.78;100.00
56330;BME280;42236;48.058;10.632;2023-11-21T07:52:41;94254.34;;;5.82;100.00
56330;BME280;42236;48.058;10.632;2023-11-21T07:55:27;94254.03;;;5.83;100.00
56330;BME280;42236;48.058;10.632;2023-11-21T07:58:12;94251.19;;;5.88;100.00
56330;BME280;42236;48.058;10.632;2023-11-21T08:00:58;94251.00;;;5.93;100.00
56330;BME280;42236;48.058;10.632;2023-11-21T08:03:44;94258.09;;;5.98;100.00
56330;BME280;42236;48.058;10.632;2023-11-21T08:06:30;94258.09;;;6.07;100.00
56330;BME280;42236;48.058;10.632;2023-11-21T08:09:25;94260.25;;;6.13;100.00
56330;BME280;42236;48.058;10.632;2023-11-21T08:12:10;94262.63;;;6.15;100.00
56330;BME280;42236;48.058;10.632;2023-11-21T08:14:56;94265.91;;;6.20;100.00
56330;BME280;42236;48.058;10.632;2023-11-21T08:17:42;94262.41;;;6.29;100.00
56330;BME280;42236;48.058;10.632;2023-11-21T08:20:28;94258.13;;;6.36;100.00
56330;BME280;42236;48.058;10.632;2023-11-21T08:23:15;94253.69;;;6.40;100.00
56330;BME280;42236;48.058;10.632;2023-11-21T08:26:04;94253.81;;;6.44;100.00
56330;BME280;42236;48.058;10.632;2023-11-21T08:28:50;94258.22;;;6.49;100.00
56330;BME280;42236;48.058;10.632;2023-11-21T08:31:38;94262.72;;;6.57;100.00
56330;BME280;42236;48.058;10.632;2023-11-21T08:34:23;94261.44;;;6.63;100.00
56330;BME280;42236;48.058;10.632;2023-11-21T08:37:09;94260.31;;;6.64;100.00
56330;BME280;42236;48.058;10.632;2023-11-21T08:39:58;94260.78;;;6.66;100.00
56330;BME280;42236;48.058;10.632;2023-11-21T08:42:45;94270.53;;;6.71;100.00
56330;BME280;42236;48.058;10.632;2023-11-21T08:45:31;94276.38;;;6.73;100.00
56330;BME280;42236;48.058;10.632;2023-11-21T08:48:29;94278.28;;;6.72;100.00
56330;BME280;42236;48.058;10.632;2023-11-21T08:51:24;94275.06;;;6.79;100.00
56330;BME280;42236;48.058;10.632;2023-11-21T08:54:10;94283.72;;;6.84;100.00
56330;BME280;42236;48.058;10.632;2023-11-21T08:56:57;94286.97;;;6.90;100.00
56330;BME280;42236;48.058;10.632;2023-11-21T08:59:46;94284.09;;;6.95;100.00
56330;BME280;42236;48.058;10.632;2023-11-21T09:02:32;94276.00;;;7.04;100.00
56330;BME280;42236;48.058;10.632;2023-11-21T09:05:19;94280.06;;;7.10;100.00
56330;BME280;42236;48.058;10.632;2023-11-21T09:08:09;94285.25;;;7.15;100.00
56330;BME280;42236;48.058;10.632;2023-11-21T09:10:55;94285.63;;;7.26;100.00
56330;BME280;42236;48.058;10.632;2023-11-21T09:13:41;94289.56;;;7.29;100.00
56330;BME280;42236;48.058;10.632;2023-11-21T09:16:27;94290.34;;;7.29;100.00
56330;BME280;42236;48.058;10.632;2023-11-21T09:19:12;94292.75;;;7.43;100.00
56330;BME280;42236;48.058;10.632;2023-11-21T09:21:59;94293.00;;;7.50;100.00
56330;BME280;42236;48.058;10.632;2023-11-21T09:24:45;94306.13;;;7.52;100.00
56330;BME280;42236;48.058;10.632;2023-11-21T09:27:31;94304.88;;;7.49;100.00
56330;BME280;42236;48.058;10.632;2023-11-21T09:30:17;94301.53;;;7.52;100.00
56330;BME280;42236;48.058;10.632;2023-11-21T09:33:03;94298.44;;;7.62;100.00
56330;BME280;42236;48.058;10.632;2023-11-21T09:35:50;94306.06;;;7.73;100.00
56330;BME280;42236;48.058;10.632;2023-11-21T09:38:50;94304.56;;;7.84;100.00
56330;BME280;42236;48.058;10.632;2023-11-21T09:41:43;94305.91;;;7.90;100.00
56330;BME280;42236;48.058;10.632;2023-11-21T09:45:05;94304.03;;;7.90;100.00
56330;BME280;42236;48.058;10.632;2023-11-21T09:47:56;94310.50;;;7.89;100.00
56330;BME280;42236;48.058;10.632;2023-11-21T09:51:13;94315.09;;;7.89;100.00
56330;BME280;42236;48.058;10.632;2023-11-21T09:54:03;94302.44;;;7.89;100.00
56330;BME280;42236;48.058;10.632;2023-11-21T09:56:51;94305.00;;;7.86;100.00
56330;BME280;42236;48.058;10.632;2023-11-21T09:59:38;94306.78;;;7.82;100.00
56330;BME280;42236;48.058;10.632;2023-11-21T10:02:26;94298.72;;;7.82;100.00
56330;BME280;42236;48.058;10.632;2023-11-21T10:05:13;94311.72;;;7.92;100.00
56330;BME280;42236;48.058;10.632;2023-11-21T10:11:44;94299.53;;;7.95;100.00
56330;BME280;42236;48.058;10.632;2023-11-21T10:14:30;94307.72;;;7.98;100.00
56330;BME280;42236;48.058;10.632;2023-11-21T10:17:17;94308.66;;;8.02;100.00
56330;BME280;42236;48.058;10.632;2023-11-21T10:20:04;94308.88;;;8.09;100.00
56330;BME280;42236;48.058;10.632;2023-11-21T10:22:56;94314.16;;;8.18;100.00
56330;BME280;42236;48.058;10.632;2023-11-21T10:25:42;94308.03;;;8.30;100.00
56330;BME280;42236;48.058;10.632;2023-11-21T10:28:28;94304.19;;;8.31;100.00
56330;BME280;42236;48.058;10.632;2023-11-21T10:31:14;94300.03;;;8.21;100.00
56330;BME280;42236;48.058;10.632;2023-11-21T10:34:17;94301.28;;;8.24;100.00
56330;BME280;42236;48.058;10.632;2023-11-21T10:37:13;94293.78;;;8.17;99.45
56330;BME280;42236;48.058;10.632;2023-11-21T10:39:59;94293.22;;;8.24;100.00
56330;BME280;42236;48.058;10.632;2023-11-21T10:42:45;94300.50;;;8.36;100.00
56330;BME280;42236;48.058;10.632;2023-11-21T10:45:31;94303.34;;;8.39;100.00
56330;BME280;42236;48.058;10.632;2023-11-21T10:48:17;94297.38;;;8.33;100.00
56330;BME280;42236;48.058;10.632;2023-11-21T10:51:06;94298.06;;;8.30;100.00
56330;BME280;42236;48.058;10.632;2023-11-21T10:53:59;94288.06;;;8.31;100.00
56330;BME280;42236;48.058;10.632;2023-11-21T10:56:50;94299.06;;;8.38;100.00
56330;BME280;42236;48.058;10.632;2023-11-21T10:59:47;94295.47;;;8.22;99.05
56330;BME280;42236;48.058;10.632;2023-11-21T11:02:34;94299.03;;;8.13;99.77
56330;BME280;42236;48.058;10.632;2023-11-21T11:05:24;94296.03;;;8.15;100.00
56330;BME280;42236;48.058;10.632;2023-11-21T11:08:12;94293.22;;;8.24;100.00
56330;BME280;42236;48.058;10.632;2023-11-21T11:11:01;94291.78;;;8.26;100.00
56330;BME280;42236;48.058;10.632;2023-11-21T11:13:47;94295.72;;;8.29;100.00
56330;BME280;42236;48.058;10.632;2023-11-21T11:16:33;94292.56;;;8.27;99.55
56330;BME280;42236;48.058;10.632;2023-11-21T11:19:20;94293.88;;;8.21;99.50
56330;BME280;42236;48.058;10.632;2023-11-21T11:22:24;94292.78;;;8.22;99.14
56330;BME280;42236;48.058;10.632;2023-11-21T11:25:34;94297.81;;;8.23;98.88
56330;BME280;42236;48.058;10.632;2023-11-21T11:28:31;94296.59;;;8.33;99.43
56330;BME280;42236;48.058;10.632;2023-11-21T11:34:34;94289.03;;;8.72;99.53
56330;BME280;42236;48.058;10.632;2023-11-21T11:37:22;94283.44;;;8.77;98.49
56330;BME280;42236;48.058;10.632;2023-11-21T11:40:11;94283.44;;;8.77;98.25
56330;BME280;42236;48.058;10.632;2023-11-21T11:42:58;94285.44;;;8.80;98.42
56330;BME280;42236;48.058;10.632;2023-11-21T11:45:47;94288.25;;;8.84;97.16
56330;BME280;42236;48.058;10.632;2023-11-21T11:48:40;94285.91;;;8.70;95.49
56330;BME280;42236;48.058;10.632;2023-11-21T11:51:26;94289.47;;;8.74;97.43
56330;BME280;42236;48.058;10.632;2023-11-21T11:54:21;94283.66;;;8.60;95.50
56330;BME280;42236;48.058;10.632;2023-11-21T11:57:17;94292.50;;;8.48;96.76
56330;BME280;42236;48.058;10.632;2023-11-21T12:03:13;94284.63;;;8.30;97.60
56330;BME280;42236;48.058;10.632;2023-11-21T12:06:00;94284.16;;;8.28;96.73
56330;BME280;42236;48.058;10.632;2023-11-21T12:08:46;94290.22;;;8.25;97.19
56330;BME280;42236;48.058;10.632;2023-11-21T12:11:32;94293.56;;;8.22;97.44
56330;BME280;42236;48.058;10.632;2023-11-21T12:14:18;94293.13;;;8.20;96.64
56330;BME280;42236;48.058;10.632;2023-11-21T12:17:04;94294.66;;;8.21;97.61
56330;BME280;42236;48.058;10.632;2023-11-21T12:23:14;94296.22;;;8.43;97.56
56330;BME280;42236;48.058;10.632;2023-11-21T12:26:06;94296.09;;;8.40;96.89
56330;BME280;42236;48.058;10.632;2023-11-21T12:28:54;94294.81;;;8.37;96.74
56330;BME280;42236;48.058;10.632;2023-11-21T12:31:41;94299.56;;;8.40;96.84
56330;BME280;42236;48.058;10.632;2023-11-21T12:34:31;94301.59;;;8.43;97.20
56330;BME280;42236;48.058;10.632;2023-11-21T12:37:18;94297.31;;;8.54;96.98
56330;BME280;42236;48.058;10.632;2023-11-21T12:40:06;94295.09;;;8.57;96.46
56330;BME280;42236;48.058;10.632;2023-11-21T12:42:55;94298.22;;;8.59;95.67
56330;BME280;42236;48.058;10.632;2023-11-21T12:45:41;94299.13;;;8.63;95.69
56330;BME280;42236;48.058;10.632;2023-11-21T12:48:27;94301.59;;;8.68;95.48
56330;BME280;42236;48.058;10.632;2023-11-21T12:51:13;94300.91;;;8.71;94.77
56330;BME280;42236;48.058;10.632;2023-11-21T12:54:02;94302.69;;;8.79;95.23
56330;BME280;42236;48.058;10.632;2023-11-21T12:56:49;94308.06;;;8.79;94.39
56330;BME280;42236;48.058;10.632;2023-11-21T12:59:38;94308.06;;;8.79;94.63
56330;BME280;42236;48.058;10.632;2023-11-21T13:02:27;94306.75;;;8.85;92.93
56330;BME280;42236;48.058;10.632;2023-11-21T13:05:13;94307.97;;;9.00;94.00
56330;BME280;42236;48.058;10.632;2023-11-21T13:08:11;94304.34;;;9.08;93.70
56330;BME280;42236;48.058;10.632;2023-11-21T13:10:59;94309.72;;;9.08;92.95
56330;BME280;42236;48.058;10.632;2023-11-21T13:13:45;94302.22;;;9.14;92.91
56330;BME280;42236;48.058;10.632;2023-11-21T13:16:30;94301.66;;;9.21;91.97
56330;BME280;42236;48.058;10.632;2023-11-21T13:19:17;94307.59;;;9.26;92.44
56330;BME280;42236;48.058;10.632;2023-11-21T13:22:02;94302.66;;;9.28;91.96
56330;BME280;42236;48.058;10.632;2023-11-21T13:24:50;94303.34;;;9.13;92.16
56330;BME280;42236;48.058;10.632;2023-11-21T13:27:35;94310.97;;;8.98;92.53
56330;BME280;42236;48.058;10.632;2023-11-21T13:30:23;94304.50;;;8.87;91.99
56330;BME280;42236;48.058;10.632;2023-11-21T13:33:21;94311.13;;;8.78;92.07
56330;BME280;42236;48.058;10.632;2023-11-21T13:36:23;94305.84;;;8.81;92.34
56330;BME280;42236;48.058;10.632;2023-11-21T13:39:09;94313.44;;;8.79;92.36
56330;BME280;42236;48.058;10.632;2023-11-21T13:42:01;94319.28;;;8.69;92.39
56330;BME280;42236;48.058;10.632;2023-11-21T13:44:49;94325.78;;;8.56;91.45
56330;BME280;42236;48.058;10.632;2023-11-21T13:47:37;94329.59;;;8.54;91.97
56330;BME280;42236;48.058;10.632;2023-11-21T13:50:26;94334.50;;;8.52;92.58
56330;BME280;42236;48.058;10.632;2023-11-21T13:53:18;94323.75;;;8.52;93.10
56330;BME280;42236;48.058;10.632;2023-11-21T13:56:08;94328.56;;;8.47;92.67
56330;BME280;42236;48.058;10.632;2023-11-21T13:58:54;94337.31;;;8.44;92.59
56330;BME280;42236;48.058;10.632;2023-11-21T14:01:41;94340.56;;;8.49;92.83
56330;BME280;42236;48.058;10.632;2023-11-21T14:04:44;94343.63;;;8.60;92.45
56330;BME280;42236;48.058;10.632;2023-11-21T14:07:40;94345.63;;;8.63;92.67
56330;BME280;42236;48.058;10.632;2023-11-21T14:10:33;94348.31;;;8.63;92.24
56330;BME280;42236;48.058;10.632;2023-11-21T14:13:36;94352.56;;;8.64;92.70
56330;BME280;42236;48.058;10.632;2023-11-21T14:16:21;94354.25;;;8.69;93.34
56330;BME280;42236;48.058;10.632;2023-11-21T14:19:08;94348.66;;;8.74;93.22
56330;BME280;42236;48.058;10.632;2023-11-21T14:22:01;94358.31;;;8.87;93.10
56330;BME280;42236;48.058;10.632;2023-11-21T14:24:46;94357.41;;;8.95;92.77
56330;BME280;42236;48.058;10.632;2023-11-21T14:27:32;94367.38;;;8.95;92.86
56330;BME280;42236;48.058;10.632;2023-11-21T14:30:19;94361.53;;;8.93;92.90
56330;BME280;42236;48.058;10.632;2023-11-21T14:33:08;94363.47;;;8.92;92.67
56330;BME280;42236;48.058;10.632;2023-11-21T14:36:05;94358.75;;;8.89;92.30
56330;BME280;42236;48.058;10.632;2023-11-21T14:38:53;94360.09;;;8.83;92.13
56330;BME280;42236;48.058;10.632;2023-11-21T14:41:39;94366.38;;;8.75;92.60
56330;BME280;42236;48.058;10.632;2023-11-21T14:44:25;94372.72;;;8.58;92.92
56330;BME280;42236;48.058;10.632;2023-11-21T14:47:14;94368.94;;;8.38;93.61
56330;BME280;42236;48.058;10.632;2023-11-21T14:50:01;94376.63;;;8.15;94.09
56330;BME280;42236;48.058;10.632;2023-11-21T14:53:06;94384.13;;;7.67;94.30